Time;durP1;ratioP1;P1;durP2;ratioP2;P2;SDS_P1;SDS_P2;PMS_P1;PMS_P2;Temp;Humidity;BMP_temperature;BMP_pressure;BME280_temperature;BME280_humidity;BME280_pressure;Samples;Min_cycle;Max_cycle;Signal;HPM_P1;HPM_P2
2022/09/18 00:02:18;;;;;;;;;7.67;5.33;;;;;16.45;49.05;-19649.22;4993778;28;47145;-72
2022/09/18 00:04:43;;;;;;;;;7.33;6.00;;;;;16.43;49.13;-19648.69;4992913;28;45285;-71
2022/09/18 00:07:08;;;;;;;;;4.67;3.33;;;;;16.40;49.04;-19647.88;4992857;28;45413;-72
2022/09/18 00:09:34;;;;;;;;;4.00;4.00;;;;;16.20;49.37;-19642.66;4990853;27;45428;-72
2022/09/18 00:12:00;;;;;;;;;2.33;2.33;;;;;16.30;49.29;-18998.75;4994984;28;46073;-72
2022/09/18 00:14:25;;;;;;;;;5.67;5.67;;;;;16.24;49.00;-15847.22;4993747;28;45428;-72
2022/09/18 00:16:51;;;;;;;;;4.00;4.00;;;;;16.21;49.74;-4705.72;4995175;28;45330;-71
2022/09/18 00:19:17;;;;;;;;;5.00;5.00;;;;;16.08;49.58;-7795.84;4995263;28;45563;-71
2022/09/18 00:21:45;;;;;;;;;4.00;4.00;;;;;16.13;49.73;211.78;4973674;28;47356;-72
2022/09/18 00:24:11;;;;;;;;;5.33;4.00;;;;;16.14;49.58;-1392.19;4976041;28;46226;-72
2022/09/18 00:26:37;;;;;;;;;4.00;4.00;;;;;16.09;49.82;-7547.44;4994803;28;45382;-71
2022/09/18 00:29:03;;;;;;;;;2.67;2.33;;;;;16.09;49.31;-8714.00;4976494;28;45376;-72
2022/09/18 00:31:33;;;;;;;;;6.67;4.33;;;;;16.01;50.02;2562.84;4994561;28;47399;-72
2022/09/18 00:34:01;;;;;;;;;5.67;5.67;;;;;16.00;50.13;26509.28;4993506;28;45414;-72
2022/09/18 00:36:28;;;;;;;;;6.00;3.67;;;;;15.88;50.15;29617.47;4973615;28;45484;-71
2022/09/18 00:38:55;;;;;;;;;4.00;4.00;;;;;15.99;50.10;27199.94;4988438;28;45305;-71
2022/09/18 00:41:33;;;;;;;;;4.00;4.00;;;;;15.96;50.19;47009.28;4973366;28;48701;-72
2022/09/18 00:44:34;;;;;;;;;4.00;4.00;;;;;15.93;50.30;39545.56;4985540;28;45436;-78
2022/09/18 00:47:06;;;;;;;;;3.00;2.00;;;;;15.92;50.11;42595.59;4982535;28;45433;-79
2022/09/18 00:49:32;;;;;;;;;4.67;4.67;;;;;15.88;50.35;53798.09;4977156;28;45424;-79
2022/09/18 00:52:00;;;;;;;;;3.33;3.33;;;;;15.81;50.64;76979.84;4994432;28;45358;-78
2022/09/18 00:54:39;;;;;;;;;3.00;3.00;;;;;15.81;50.55;73560.75;4992344;28;45580;-79
2022/09/18 00:57:09;;;;;;;;;8.00;4.00;;;;;15.80;50.62;84165.91;4981243;28;45568;-79
2022/09/18 00:59:36;;;;;;;;;3.67;3.00;;;;;15.75;50.98;91016.59;4994495;28;45479;-79
2022/09/18 01:02:03;;;;;;;;;3.67;3.67;;;;;15.73;50.97;99944.16;4994219;28;45942;-78
2022/09/18 01:04:29;;;;;;;;;4.00;4.00;;;;;15.71;50.99;119245.09;4993200;28;45455;-78
2022/09/18 01:07:14;;;;;;;;;4.33;3.67;;;;;15.69;51.26;119241.00;4994175;28;45437;-78
2022/09/18 01:10:10;;;;;;;;;4.00;4.00;;;;;15.68;51.48;125461.69;4983599;28;45428;-78
2022/09/18 01:12:39;;;;;;;;;3.00;3.00;;;;;15.68;51.36;117165.44;4992741;28;45519;-78
2022/09/18 01:15:04;;;;;;;;;3.67;3.67;;;;;15.68;51.42;118201.56;4974426;28;45330;-78
2022/09/18 01:17:47;;;;;;;;;5.33;3.33;;;;;15.66;51.44;130998.47;4976418;28;45423;-79
2022/09/18 01:20:26;;;;;;;;;8.00;5.33;;;;;15.63;51.35;134112.31;4994455;28;45452;-78
2022/09/18 01:23:11;;;;;;;;;4.33;4.00;;;;;15.52;51.57;133046.16;4992161;28;46112;-78
2022/09/18 01:26:00;;;;;;;;;5.00;2.67;;;;;15.58;51.60;135833.63;4993783;28;45246;-79
2022/09/18 01:28:56;;;;;;;;;6.33;4.33;;;;;15.59;51.67;127866.03;4983244;28;45424;-79
2022/09/18 01:31:32;;;;;;;;;3.00;3.00;;;;;15.54;51.49;131665.69;4992999;28;45481;-78
2022/09/18 01:34:03;;;;;;;;;5.67;3.00;;;;;15.44;51.91;134761.03;4993947;28;45944;-79
2022/09/18 01:36:33;;;;;;;;;3.00;3.00;;;;;15.57;51.48;129592.91;4993528;28;45386;-78
2022/09/18 01:39:26;;;;;;;;;5.00;5.00;;;;;15.51;51.61;125773.38;4993840;28;45404;-79
2022/09/18 01:41:54;;;;;;;;;5.67;5.33;;;;;15.54;51.67;128894.81;4987884;28;45440;-79
2022/09/18 01:44:28;;;;;;;;;5.33;5.33;;;;;15.54;51.69;126125.78;4993609;28;45259;-79
2022/09/18 01:46:56;;;;;;;;;3.33;3.33;;;;;15.54;51.87;128547.50;4986728;28;45378;-79
2022/09/18 01:49:27;;;;;;;;;3.00;3.00;;;;;15.52;51.69;126813.59;4974442;28;45502;-79
2022/09/18 01:52:10;;;;;;;;;3.67;3.67;;;;;15.49;51.69;128536.53;4983353;28;45448;-79
2022/09/18 01:54:40;;;;;;;;;4.00;3.67;;;;;15.49;51.82;125423.13;4996180;28;47260;-78
2022/09/18 01:57:15;;;;;;;;;5.67;3.00;;;;;15.49;51.67;130614.13;4987377;28;45417;-79
2022/09/18 01:59:45;;;;;;;;;3.67;3.67;;;;;15.36;51.57;132318.09;4990410;28;45492;-78
2022/09/18 02:02:17;;;;;;;;;5.00;4.00;;;;;15.46;51.95;136499.44;4977774;28;45573;-79
2022/09/18 02:04:46;;;;;;;;;5.00;5.00;;;;;15.46;51.76;135112.34;4995960;28;46105;-79
2022/09/18 02:07:21;;;;;;;;;6.67;4.67;;;;;15.34;51.87;140984.28;4993732;28;45377;-78
2022/09/18 02:09:47;;;;;;;;;4.00;4.00;;;;;15.46;52.08;139276.22;4996379;28;45336;-78
2022/09/18 02:12:17;;;;;;;;;5.67;4.00;;;;;15.45;51.95;124375.94;4977883;28;45319;-78
2022/09/18 02:14:50;;;;;;;;;4.67;4.00;;;;;15.45;52.00;133724.53;4986967;28;45708;-78
2022/09/18 02:17:56;;;;;;;;;3.33;3.33;;;;;15.45;52.01;132684.84;4972593;28;45409;-79
2022/09/18 02:20:29;;;;;;;;;5.33;4.00;;;;;15.44;51.81;135801.19;4996121;28;45308;-79
2022/09/18 02:23:01;;;;;;;;;4.67;1.67;;;;;15.42;52.01;141696.75;4978999;28;45452;-78
2022/09/18 02:25:31;;;;;;;;;2.00;2.00;;;;;15.39;51.99;145510.84;4974188;28;47632;-78
2022/09/18 02:27:57;;;;;;;;;2.33;1.00;;;;;15.37;52.40;145853.44;4995578;28;45806;-78
2022/09/18 02:30:24;;;;;;;;;5.67;5.00;;;;;15.37;52.15;144812.06;5063544;28;45438;-78
2022/09/18 02:32:55;;;;;;;;;2.67;2.67;;;;;15.33;52.19;147930.53;5063666;28;45494;-79
2022/09/18 02:35:24;;;;;;;;;2.33;2.33;;;;;15.32;52.25;149667.00;4993517;28;46424;-78
2022/09/18 02:38:19;;;;;;;;;4.33;4.00;;;;;15.30;52.46;149314.03;4995249;28;45485;-78
2022/09/18 02:40:58;;;;;;;;;4.33;2.67;;;;;15.29;52.31;147919.16;5061849;28;45558;-79
2022/09/18 02:43:55;;;;;;;;;5.33;2.67;;;;;15.23;52.31;148600.72;4996384;28;45460;-78
2022/09/18 02:46:54;;;;;;;;;2.67;2.67;;;;;15.23;52.37;151034.22;4991560;28;46268;-78
2022/09/18 02:49:31;;;;;;;;;1.33;1.33;;;;;15.19;52.54;153461.22;4996063;28;45499;-78
2022/09/18 02:52:25;;;;;;;;;2.00;2.00;;;;;15.17;52.61;153804.09;4994093;28;45509;-78
2022/09/18 02:55:07;;;;;;;;;2.00;1.00;;;;;15.15;52.68;154495.19;4985467;28;45414;-78
2022/09/18 02:57:55;;;;;;;;;3.67;2.00;;;;;15.10;52.93;154832.84;4994950;28;47287;-78
2022/09/18 03:00:22;;;;;;;;;2.67;2.67;;;;;15.13;53.08;154840.81;4990430;28;45719;-78
2022/09/18 03:02:50;;;;;;;;;1.00;0.67;;;;;15.09;53.32;154830.22;4993902;28;45408;-78
2022/09/18 03:05:16;;;;;;;;;1.67;1.67;;;;;15.07;53.17;154824.94;4994212;28;45448;-78
2022/09/18 03:07:42;;;;;;;;;1.33;1.33;;;;;15.07;53.15;154826.25;4994728;28;45439;-78
2022/09/18 03:10:08;;;;;;;;;2.00;2.00;;;;;15.00;53.28;154807.78;4990690;28;45559;-78
2022/09/18 03:12:33;;;;;;;;;2.00;2.00;;;;;15.03;53.31;154815.72;4993112;27;45565;-78
2022/09/18 03:14:59;;;;;;;;;3.67;1.67;;;;;15.03;53.51;154814.38;4995200;28;45349;-78
2022/09/18 03:17:24;;;;;;;;;2.33;2.33;;;;;15.01;53.42;154810.44;4993677;28;45445;-78
2022/09/18 03:19:49;;;;;;;;;4.00;2.00;;;;;14.98;53.60;154803.84;4993161;28;45384;-79
2022/09/18 03:22:15;;;;;;;;;2.67;2.67;;;;;14.97;53.51;154801.16;4976440;28;45630;-79
2022/09/18 03:24:40;;;;;;;;;5.67;2.33;;;;;14.97;53.51;154799.88;4994502;28;45448;-78
2022/09/18 03:27:06;;;;;;;;;2.33;2.33;;;;;14.95;53.58;154795.88;4993100;28;46025;-79
2022/09/18 03:29:32;;;;;;;;;4.00;2.00;;;;;14.93;53.65;154789.28;4993134;28;45642;-78
2022/09/18 03:31:57;;;;;;;;;2.67;2.67;;;;;14.82;53.68;154761.59;4994985;28;45283;-79
2022/09/18 03:34:22;;;;;;;;;3.00;2.67;;;;;14.84;53.64;154766.84;4973370;28;45350;-79
2022/09/18 03:36:48;;;;;;;;;2.00;2.00;;;;;14.80;53.79;154756.31;4989443;28;46900;-78
2022/09/18 03:39:13;;;;;;;;;3.33;3.33;;;;;14.80;53.83;154754.94;4993683;28;45514;-78
2022/09/18 03:41:39;;;;;;;;;3.00;3.00;;;;;14.76;53.84;154745.75;4976196;28;45356;-72
2022/09/18 03:44:04;;;;;;;;;3.67;2.67;;;;;14.78;54.00;154752.31;4993028;28;45635;-71
2022/09/18 03:46:29;;;;;;;;;3.33;3.33;;;;;14.77;54.08;154749.72;4994169;28;46286;-72
2022/09/18 03:48:55;;;;;;;;;6.67;4.00;;;;;14.74;53.94;154741.75;4991334;28;45524;-71
2022/09/18 03:51:21;;;;;;;;;3.33;3.33;;;;;14.66;54.20;154719.34;4993812;28;45286;-71
2022/09/18 03:53:47;;;;;;;;;2.33;2.33;;;;;14.72;54.15;154736.47;4994044;28;45503;-71
2022/09/18 03:56:13;;;;;;;;;4.00;4.00;;;;;14.70;54.23;154731.25;4993891;28;46502;-71
2022/09/18 03:58:39;;;;;;;;;3.33;3.00;;;;;14.66;54.20;154720.66;4993247;28;45472;-72
2022/09/18 04:01:05;;;;;;;;;6.33;5.00;;;;;14.62;54.57;154710.09;4975597;28;45537;-72
2022/09/18 04:03:31;;;;;;;;;5.00;5.00;;;;;14.61;54.35;154707.47;4994435;28;45383;-71
2022/09/18 04:05:57;;;;;;;;;5.33;3.33;;;;;14.50;54.61;154679.69;4991877;28;45415;-71
2022/09/18 04:08:22;;;;;;;;;3.67;3.67;;;;;14.57;54.69;154696.91;4992645;28;45500;-72
2022/09/18 04:10:48;;;;;;;;;10.00;6.00;;;;;14.51;54.33;154682.31;4976174;28;45450;-71
2022/09/18 04:13:14;;;;;;;;;5.00;5.00;;;;;14.60;54.62;154703.50;4993109;28;45563;-71
2022/09/18 04:15:39;;;;;;;;;3.33;3.33;;;;;14.57;54.57;154696.91;4973207;28;47080;-71
2022/09/18 04:18:05;;;;;;;;;3.67;3.67;;;;;14.56;54.77;154695.59;4990148;28;45359;-71
2022/09/18 04:20:31;;;;;;;;;4.33;2.67;;;;;14.53;54.44;154687.59;4993400;28;45487;-72
2022/09/18 04:22:56;;;;;;;;;2.67;2.67;;;;;14.55;54.59;154692.94;4993581;28;45627;-72
2022/09/18 04:25:21;;;;;;;;;6.33;5.67;;;;;14.53;54.59;154687.59;4994025;28;45253;-71
2022/09/18 04:27:47;;;;;;;;;3.33;3.33;;;;;14.52;54.64;154683.66;4993075;28;45454;-71
2022/09/18 04:30:13;;;;;;;;;2.67;2.67;;;;;14.36;54.64;154644.06;4989992;28;45709;-71
2022/09/18 04:32:38;;;;;;;;;3.33;3.33;;;;;14.36;54.70;154644.06;4994146;28;45546;-72
2022/09/18 04:35:04;;;;;;;;;5.67;3.67;;;;;14.49;54.88;154677.06;4987975;28;45552;-71
2022/09/18 04:37:30;;;;;;;;;3.33;3.33;;;;;14.50;54.76;154678.38;4976236;28;45387;-71
2022/09/18 04:39:55;;;;;;;;;2.67;2.67;;;;;14.47;54.72;154671.78;4993235;28;45424;-71
2022/09/18 04:42:21;;;;;;;;;2.67;2.67;;;;;14.48;54.78;154674.41;4992669;28;45251;-78
2022/09/18 04:44:46;;;;;;;;;4.00;3.33;;;;;14.42;54.85;154657.25;4991069;28;45532;-78
2022/09/18 04:47:12;;;;;;;;;3.33;3.33;;;;;14.34;55.17;154637.47;4994412;28;45468;-78
2022/09/18 04:49:37;;;;;;;;;4.00;4.00;;;;;14.41;54.96;154655.94;4976845;28;45405;-78
2022/09/18 04:52:02;;;;;;;;;2.67;2.67;;;;;14.40;54.89;154651.94;4995115;28;45360;-78
2022/09/18 04:54:28;;;;;;;;;1.67;1.67;;;;;14.38;55.12;154646.72;4992382;28;46309;-78
2022/09/18 04:56:53;;;;;;;;;4.00;4.00;;;;;14.33;55.18;154636.16;4994552;28;45393;-78
2022/09/18 04:59:18;;;;;;;;;3.00;3.00;;;;;14.32;55.43;154632.19;4982756;28;45694;-78
2022/09/18 05:01:44;;;;;;;;;3.33;3.33;;;;;14.31;55.47;154630.88;4994820;28;45414;-78
2022/09/18 05:04:09;;;;;;;;;5.33;5.00;;;;;14.18;55.70;154596.53;4992370;28;46011;-78
2022/09/18 05:06:35;;;;;;;;;2.67;2.67;;;;;14.29;55.56;154625.59;4992251;28;45357;-78
2022/09/18 05:09:00;;;;;;;;;4.00;2.67;;;;;14.27;55.56;154620.31;4993351;28;45338;-78
2022/09/18 05:11:25;;;;;;;;;4.00;4.00;;;;;14.27;55.95;154620.31;4976452;28;45396;-78
2022/09/18 05:13:55;;;;;;;;;5.00;3.00;;;;;14.25;55.68;154615.00;4990013;28;46068;-78
2022/09/18 05:16:23;;;;;;;;;7.33;4.00;;;;;14.27;55.97;154620.31;4989888;28;45541;-78
2022/09/18 05:18:52;;;;;;;;;3.67;3.67;;;;;14.20;55.82;154600.53;4993112;28;45333;-78
2022/09/18 05:21:18;;;;;;;;;3.67;3.67;;;;;14.24;55.88;154612.41;4993078;28;45479;-78
2022/09/18 05:23:45;;;;;;;;;4.33;3.00;;;;;14.17;55.77;154593.94;4992825;28;46058;-77
2022/09/18 05:26:11;;;;;;;;;1.67;1.67;;;;;14.19;55.74;154599.22;4995227;28;45847;-78
2022/09/18 05:28:36;;;;;;;;;3.00;3.00;;;;;14.26;55.77;154617.69;4995386;28;45464;-78
2022/09/18 05:31:02;;;;;;;;;3.00;2.00;;;;;14.26;55.82;154616.38;4995830;28;45519;-78
2022/09/18 05:33:27;;;;;;;;;1.33;1.33;;;;;14.27;55.73;154619.00;4992099;28;46774;-78
2022/09/18 05:35:55;;;;;;;;;2.00;2.00;;;;;14.28;55.86;154622.97;4994626;28;45285;-78
2022/09/18 05:38:21;;;;;;;;;2.67;2.67;;;;;14.29;55.66;154625.59;4996267;28;45285;-78
2022/09/18 05:40:49;;;;;;;;;3.00;3.00;;;;;14.33;55.99;154634.84;4996258;28;45311;-78
2022/09/18 05:43:15;;;;;;;;;2.00;1.67;;;;;14.24;55.56;154611.09;4992832;28;45673;-71
2022/09/18 05:45:41;;;;;;;;;3.33;2.67;;;;;14.33;55.69;154634.84;4990393;28;45377;-72
2022/09/18 05:48:07;;;;;;;;;2.00;2.00;;;;;14.27;55.70;154619.00;4993869;28;45385;-71
2022/09/18 05:50:35;;;;;;;;;4.00;2.00;;;;;14.36;55.54;154642.75;4994452;28;45349;-71
2022/09/18 05:53:05;;;;;;;;;2.00;2.00;;;;;14.37;55.63;154645.38;4976829;28;48303;-72
2022/09/18 05:55:31;;;;;;;;;2.00;2.00;;;;;14.36;55.49;154644.06;4993114;28;45581;-72
2022/09/18 05:57:58;;;;;;;;;1.33;1.33;;;;;14.22;55.85;154607.13;4977196;28;45482;-71
2022/09/18 06:00:26;;;;;;;;;1.33;1.33;;;;;14.34;55.91;154638.78;4995046;28;45294;-72
2022/09/18 06:03:03;;;;;;;;;3.67;2.00;;;;;14.32;55.45;154633.47;4993810;28;46069;-71
2022/09/18 06:05:32;;;;;;;;;0.67;0.67;;;;;14.30;55.61;154628.19;4994600;28;46440;-71
2022/09/18 06:07:58;;;;;;;;;2.00;2.00;;;;;14.33;55.88;154634.84;4994291;27;45468;-71
2022/09/18 06:10:24;;;;;;;;;1.33;0.67;;;;;14.32;55.73;154633.47;4995040;28;45575;-71
2022/09/18 06:12:49;;;;;;;;;1.33;1.33;;;;;14.34;55.64;154637.47;4993097;28;45517;-71
2022/09/18 06:15:14;;;;;;;;;3.00;2.33;;;;;14.38;55.78;154646.72;4996315;28;45308;-71
2022/09/18 06:17:40;;;;;;;;;3.33;2.33;;;;;14.31;55.80;154629.56;4993473;28;45453;-71
2022/09/18 06:20:07;;;;;;;;;2.33;2.33;;;;;14.44;55.74;154662.53;4994801;28;45237;-71
2022/09/18 06:22:34;;;;;;;;;2.00;2.00;;;;;14.36;55.87;154642.75;4994000;27;47291;-71
2022/09/18 06:24:59;;;;;;;;;0.67;0.67;;;;;14.25;55.72;154615.00;4993974;28;45408;-72
2022/09/18 06:27:25;;;;;;;;;2.00;2.00;;;;;14.45;56.09;154666.50;4992543;28;45649;-71
2022/09/18 06:29:50;;;;;;;;;1.33;1.33;;;;;14.38;56.07;154646.72;4994153;28;45480;-71
2022/09/18 06:32:16;;;;;;;;;2.67;0.67;;;;;14.56;55.73;154694.22;4967722;28;47335;-71
2022/09/18 06:34:41;;;;;;;;;3.33;2.67;;;;;14.60;55.93;154704.81;4991781;28;45448;-71
2022/09/18 06:37:10;;;;;;;;;1.33;1.33;;;;;14.63;55.96;154711.41;4993255;28;45517;-71
2022/09/18 06:39:36;;;;;;;;;2.67;2.67;;;;;14.65;55.93;154718.00;4994913;28;45547;-71
2022/09/18 06:42:01;;;;;;;;;1.33;1.33;;;;;14.70;55.62;154729.88;4977984;28;45946;-78
2022/09/18 06:44:27;;;;;;;;;2.33;2.33;;;;;14.68;55.57;154724.59;4993511;28;45351;-78
2022/09/18 06:46:52;;;;;;;;;0.67;0.67;;;;;14.69;55.64;154727.25;4993979;28;45464;-78
2022/09/18 06:49:17;;;;;;;;;1.33;1.00;;;;;14.73;55.71;154737.84;4993562;28;45609;-77
2022/09/18 06:51:44;;;;;;;;;1.67;0.67;;;;;14.77;55.62;154749.72;4993885;28;47091;-77
2022/09/18 06:54:12;;;;;;;;;1.33;1.33;;;;;14.82;55.69;154760.25;4995096;28;45369;-78
2022/09/18 06:56:37;;;;;;;;;0.67;0.67;;;;;14.75;55.58;154743.13;4994698;28;45426;-78
2022/09/18 06:59:02;;;;;;;;;0.67;0.67;;;;;14.89;55.62;154778.72;4993593;28;45409;-78
2022/09/18 07:01:28;;;;;;;;;0.67;0.67;;;;;14.95;55.71;154795.88;4994763;28;46601;-77
2022/09/18 07:03:53;;;;;;;;;0.67;0.67;;;;;15.02;55.59;154813.06;4975579;28;45738;-78
2022/09/18 07:06:18;;;;;;;;;1.33;1.00;;;;;15.02;55.50;154813.06;4976512;28;45574;-78
2022/09/18 07:08:44;;;;;;;;;3.00;1.67;;;;;15.12;55.54;154839.44;4995975;28;45427;-78
2022/09/18 07:11:09;;;;;;;;;1.00;1.00;;;;;15.18;55.54;154854.00;4995696;28;45301;-78
2022/09/18 07:13:36;;;;;;;;;1.67;1.67;;;;;15.25;55.54;154872.47;4992050;28;48802;-77
2022/09/18 07:16:02;;;;;;;;;1.00;1.00;;;;;15.29;55.50;154881.69;4993287;27;45504;-78
2022/09/18 07:18:27;;;;;;;;;1.67;1.67;;;;;15.40;55.66;154910.75;4994079;28;45437;-78
2022/09/18 07:20:53;;;;;;;;;2.00;2.00;;;;;15.50;55.51;154935.84;4993999;27;46022;-78
2022/09/18 07:23:18;;;;;;;;;1.00;1.00;;;;;15.56;55.21;154951.72;4990821;28;45584;-78
2022/09/18 07:25:44;;;;;;;;;1.00;1.00;;;;;15.68;55.05;154982.09;4995659;28;45406;-78
2022/09/18 07:28:11;;;;;;;;;3.33;2.00;;;;;15.75;55.13;155001.94;4994803;28;45388;-78
2022/09/18 07:30:37;;;;;;;;;1.00;1.00;;;;;15.83;54.70;155021.78;4993416;28;46288;-77
2022/09/18 07:33:04;;;;;;;;;1.33;1.00;;;;;15.79;54.43;155012.50;4987080;28;45427;-72
2022/09/18 07:35:31;;;;;;;;;3.00;2.33;;;;;15.95;54.60;155052.16;4990577;28;45892;-75
2022/09/18 07:38:01;;;;;;;;;3.67;2.00;;;;;16.01;54.34;155069.34;4970644;28;45644;-77
2022/09/18 07:40:27;;;;;;;;;2.33;2.00;;;;;16.09;54.13;155087.84;4990700;28;46244;-75
2022/09/18 07:43:09;;;;;;;;;2.00;2.00;;;;;16.09;54.16;155089.16;4974666;28;45543;-71
2022/09/18 07:45:35;;;;;;;;;1.00;1.00;;;;;16.24;54.13;155128.78;4988916;28;45859;-71
2022/09/18 07:48:04;;;;;;;;;1.00;1.00;;;;;16.35;54.08;154804.94;5000438;27;45572;-71
2022/09/18 07:50:29;;;;;;;;;1.00;1.00;;;;;16.45;54.01;152039.50;4993801;28;45274;-71
2022/09/18 07:52:57;;;;;;;;;1.33;1.33;;;;;16.53;53.53;150665.53;4993056;28;45381;-71
2022/09/18 07:55:24;;;;;;;;;2.33;1.33;;;;;16.60;53.25;131204.25;4992330;28;45453;-71
2022/09/18 07:57:56;;;;;;;;;2.00;2.00;;;;;16.68;53.38;141298.28;4991362;28;45675;-71
2022/09/18 08:00:22;;;;;;;;;4.33;4.33;;;;;16.71;53.04;119789.78;4991372;28;46136;-71
2022/09/18 08:02:47;;;;;;;;;1.00;1.00;;;;;16.78;53.47;125692.00;4989109;28;45535;-71
2022/09/18 08:05:12;;;;;;;;;2.00;2.00;;;;;16.82;53.34;131599.53;4992251;28;54080;-72
2022/09/18 08:07:38;;;;;;;;;2.67;2.67;;;;;16.92;53.42;146230.56;4969682;28;46153;-72
2022/09/18 08:10:04;;;;;;;;;2.00;2.00;;;;;17.01;52.75;102572.16;4977058;28;47161;-73
2022/09/18 08:12:30;;;;;;;;;1.33;1.33;;;;;17.13;53.75;155356.19;4986673;28;45771;-72
2022/09/18 08:14:56;;;;;;;;;3.00;2.00;;;;;17.23;53.43;141080.16;4989974;28;45323;-73
2022/09/18 08:17:22;;;;;;;;;2.00;1.00;;;;;17.19;53.29;104672.94;4977124;28;45511;-74
2022/09/18 08:19:47;;;;;;;;;3.00;1.33;;;;;17.35;52.83;85758.59;4986329;28;45453;-74
2022/09/18 08:22:12;;;;;;;;;2.00;2.00;;;;;17.43;52.94;117162.66;4985145;28;46236;-74
2022/09/18 08:24:37;;;;;;;;;3.00;3.00;;;;;17.49;52.62;92314.03;4965588;28;45535;-74
2022/09/18 08:27:03;;;;;;;;;1.67;1.67;;;;;17.58;52.33;52457.03;4974849;28;45440;-74
2022/09/18 08:29:31;;;;;;;;;3.00;3.00;;;;;17.75;52.34;42687.53;4966346;28;46394;-71
2022/09/18 08:31:57;;;;;;;;;1.67;1.33;;;;;17.65;52.17;54413.88;4987063;28;45422;-74
2022/09/18 08:34:23;;;;;;;;;2.33;1.00;;;;;17.85;52.15;8834.53;4987055;28;46498;-74
2022/09/18 08:36:48;;;;;;;;;3.00;2.00;;;;;17.81;52.42;70724.47;4988382;28;45495;-74
2022/09/18 08:39:13;;;;;;;;;2.33;2.33;;;;;17.97;51.97;2762.53;4990208;28;46585;-74
2022/09/18 08:42:10;;;;;;;;;2.00;1.00;;;;;18.06;52.21;22524.72;4987610;28;45506;-74
2022/09/18 08:44:59;;;;;;;;;1.67;1.67;;;;;18.21;51.95;27464.91;4985791;28;46957;-74
2022/09/18 08:47:32;;;;;;;;;1.00;1.00;;;;;18.25;52.04;10250.16;5005379;28;45466;-73
2022/09/18 08:50:26;;;;;;;;;1.00;1.00;;;;;18.47;51.61;-4965.81;5006517;28;45573;-73
2022/09/18 08:53:02;;;;;;;;;2.00;2.00;;;;;18.56;51.04;-19704.22;5008266;28;45450;-74
2022/09/18 08:55:38;;;;;;;;;2.67;1.67;;;;;18.53;50.27;-19703.56;5006051;28;45537;-71
2022/09/18 08:58:21;;;;;;;;;2.00;1.00;;;;;18.67;50.27;-19707.03;4997686;28;45356;-73
2022/09/18 09:00:49;;;;;;;;;0.00;0.00;;;;;18.76;50.29;-19709.44;5002939;28;46283;-73
2022/09/18 09:03:49;;;;;;;;;1.00;1.00;;;;;18.83;50.59;-19711.19;5007015;28;45458;-73
2022/09/18 09:06:27;;;;;;;;;3.33;2.33;;;;;18.97;50.87;-19714.91;5000787;28;45469;-73
2022/09/18 09:09:00;;;;;;;;;3.00;0.00;;;;;19.08;50.81;-19717.72;4987769;28;45553;-73
2022/09/18 09:11:35;;;;;;;;;0.67;0.67;;;;;19.19;50.23;-19720.66;5006791;28;46195;-73
2022/09/18 09:14:31;;;;;;;;;1.00;1.00;;;;;19.28;49.56;-19723.06;5009124;28;45536;-73
2022/09/18 09:17:20;;;;;;;;;1.00;1.00;;;;;19.48;48.83;-19728.28;5008674;28;45428;-73
2022/09/18 09:19:45;;;;;;;;;1.00;1.00;;;;;19.64;47.73;-19732.41;5012230;28;45430;-73
2022/09/18 09:22:17;;;;;;;;;1.00;1.00;;;;;19.70;47.86;-19733.88;5001034;28;45905;-73
2022/09/18 09:25:03;;;;;;;;;0.00;0.00;;;;;19.99;47.55;-19741.63;4996419;28;45556;-71
2022/09/18 09:27:36;;;;;;;;;0.00;0.00;;;;;20.11;48.01;-19744.69;4910396;28;45528;-73
2022/09/18 09:30:21;;;;;;;;;0.00;0.00;;;;;20.27;47.08;-19748.69;4893778;28;45438;-73
2022/09/18 09:32:50;;;;;;;;;0.00;0.00;;;;;20.58;46.33;-19756.81;4905308;28;46264;-73
2022/09/18 09:35:15;;;;;;;;;0.00;0.00;;;;;21.32;45.73;-19776.13;4910449;28;45490;-73
2022/09/18 09:37:44;;;;;;;;;1.00;1.00;;;;;22.93;43.14;-19817.91;4891134;28;45504;-73
2022/09/18 09:40:19;;;;;;;;;1.00;1.00;;;;;24.80;40.18;-19866.47;4912253;28;45962;-74
2022/09/18 09:43:03;;;;;;;;;0.00;0.00;;;;;26.53;37.92;-19911.22;4907227;28;46258;-81
2022/09/18 09:45:45;;;;;;;;;1.00;1.00;;;;;27.57;36.26;-19938.03;4918139;28;45445;-81
2022/09/18 09:48:21;;;;;;;;;1.00;1.00;;;;;28.43;34.07;-19617.69;4911702;28;45763;-81
2022/09/18 09:50:52;;;;;;;;;0.75;0.75;;;;;29.29;32.72;-17934.72;4913187;28;45477;-80
2022/09/18 09:53:18;;;;;;;;;1.00;1.00;;;;;30.26;31.69;-16590.16;4908969;28;47403;-81
2022/09/18 09:55:46;;;;;;;;;1.00;1.00;;;;;31.21;30.76;-15240.53;4909211;28;45453;-81
2022/09/18 09:58:44;;;;;;;;;1.00;1.00;;;;;31.75;29.33;-9422.34;4910783;28;45512;-80
2022/09/18 10:01:25;;;;;;;;;0.75;0.75;;;;;32.55;28.37;-8055.22;4904757;28;47127;-81
2022/09/18 10:04:12;;;;;;;;;0.00;0.00;;;;;33.28;28.06;-4618.31;4927191;28;45512;-81
2022/09/18 10:06:48;;;;;;;;;0.00;0.00;;;;;33.87;26.57;-135.97;4986193;28;45524;-81
2022/09/18 10:09:32;;;;;;;;;0.00;0.00;;;;;34.33;25.52;3321.25;4992941;28;45496;-81
2022/09/18 10:12:16;;;;;;;;;0.25;0.25;;;;;34.72;25.64;5401.16;4983750;28;45548;-81
2022/09/18 10:14:46;;;;;;;;;1.00;1.00;;;;;35.15;25.24;10257.88;4993476;28;46412;-82
2022/09/18 10:17:14;;;;;;;;;0.00;0.00;;;;;35.49;24.21;13388.50;4991403;28;45396;-80
2022/09/18 10:19:41;;;;;;;;;1.75;0.00;;;;;35.92;23.40;18266.34;4992466;28;45464;-80
2022/09/18 10:22:12;;;;;;;;;0.00;0.00;;;;;36.04;23.32;22218.69;4989758;28;45298;-79
2022/09/18 10:25:00;;;;;;;;;2.00;0.75;;;;;36.24;23.42;23449.16;4986921;28;45608;-75
2022/09/18 10:27:26;;;;;;;;;0.00;0.00;;;;;36.43;22.66;26857.19;4985675;28;45297;-77
2022/09/18 10:29:54;;;;;;;;;0.00;0.00;;;;;36.95;22.71;25922.25;4979927;28;45516;-81
2022/09/18 10:32:40;;;;;;;;;0.00;0.00;;;;;37.28;22.80;29095.63;4984486;28;45636;-80
2022/09/18 10:35:30;;;;;;;;;0.00;0.00;;;;;37.65;22.50;30663.84;4966899;28;46058;-79
2022/09/18 10:37:57;;;;;;;;;0.00;0.00;;;;;37.86;21.54;34031.50;4983627;28;45440;-84
2022/09/18 10:40:28;;;;;;;;;0.00;0.00;;;;;38.04;20.78;36720.47;4984313;28;45725;-80
2022/09/18 10:42:55;;;;;;;;;0.00;0.00;;;;;38.16;20.46;38213.19;4984433;28;45583;-73
2022/09/18 10:45:26;;;;;;;;;0.00;0.00;;;;;38.30;20.76;39503.03;4992717;28;45532;-70
2022/09/18 10:48:04;;;;;;;;;0.00;0.00;;;;;38.38;21.37;38910.78;4991484;28;45494;-72
2022/09/18 10:50:30;;;;;;;;;0.00;0.00;;;;;38.55;20.46;42278.13;4983193;28;45466;-71
2022/09/18 10:53:19;;;;;;;;;0.33;0.33;;;;;38.27;21.77;41533.06;4976862;28;46271;-73
2022/09/18 10:55:48;;;;;;;;;1.33;1.33;;;;;38.32;22.29;41180.03;4981300;28;45525;-76
2022/09/18 10:58:15;;;;;;;;;0.00;0.00;;;;;38.11;23.41;38084.06;4983133;28;45649;-71
2022/09/18 11:00:50;;;;;;;;;1.33;0.00;;;;;38.08;23.51;36994.31;4979798;28;45417;-71
2022/09/18 11:03:20;;;;;;;;;0.00;0.00;;;;;37.29;21.13;47612.63;4963774;28;45363;-72
2022/09/18 11:05:52;;;;;;;;;0.00;0.00;;;;;37.01;22.21;46756.28;4982557;28;46793;-70
2022/09/18 11:08:23;;;;;;;;;0.00;0.00;;;;;36.84;22.32;47982.44;4988611;28;45615;-71
2022/09/18 11:10:52;;;;;;;;;1.00;0.00;;;;;35.95;22.04;50558.19;4987448;28;45573;-70
2022/09/18 11:13:25;;;;;;;;;0.67;0.67;;;;;35.73;22.50;50252.22;4991101;28;45437;-70
2022/09/18 11:15:56;;;;;;;;;1.00;1.00;;;;;35.69;22.01;51664.84;4987867;28;46424;-70
2022/09/18 11:18:24;;;;;;;;;1.33;1.33;;;;;34.83;21.98;54518.72;4989849;28;45508;-70
2022/09/18 11:20:51;;;;;;;;;0.00;0.00;;;;;34.16;22.94;54823.19;4987197;28;45444;-70
2022/09/18 11:23:20;;;;;;;;;0.67;0.00;;;;;34.01;23.60;54624.00;4991538;28;45522;-70
2022/09/18 11:25:46;;;;;;;;;2.00;0.67;;;;;33.87;23.32;55234.16;4987481;28;45979;-70
2022/09/18 11:28:31;;;;;;;;;1.00;1.00;;;;;33.72;24.09;54285.13;4988859;28;45581;-70
2022/09/18 11:31:00;;;;;;;;;1.00;1.00;;;;;33.58;24.68;54073.47;4987594;28;45698;-70
2022/09/18 11:33:31;;;;;;;;;1.00;1.00;;;;;33.54;23.59;55561.69;4989108;28;45369;-70
2022/09/18 11:36:04;;;;;;;;;1.00;1.00;;;;;33.37;24.38;54013.34;4974238;28;47329;-73
2022/09/18 11:38:31;;;;;;;;;0.25;0.25;;;;;33.34;24.23;54288.66;4990392;28;45503;-73
2022/09/18 11:40:59;;;;;;;;;0.00;0.00;;;;;33.18;25.88;52871.31;4991684;28;45487;-70
2022/09/18 11:43:35;;;;;;;;;0.00;0.00;;;;;32.80;25.32;54078.94;4991697;28;45420;-70